F/V Le Belier — FOUS — position and weather

sailwx.info

Track history (hours):
 
Tides and Currents Weather Stations Pressure Air Temp Water Temp Dewpoint Dewpoint Depression Visibility Wind Speed Wind Dir Waves Ship Positions

F/V Le Belier

Last reported at 2018-May-21 09:00 UTC. Time now 2018-May-21 09:16 UTC.
Position N 47°30' W 003°31'.

Length 16 m.

Type: Fishing. MMSI: 227145200.

Date/timePositionNaut miles runAvg speedWind from/ knotsBaromVisibWave heightAir tempDewpointWater temp
2018-May-21 09:00N 47°30' W 003°31'2 3.4
2018-May-21 08:30N 47°28' W 003°32'2 4.3
2018-May-21 08:01N 47°30' W 003°33'0 1.0
2018-May-21 07:30N 47°31' W 003°33'2 4.2
2018-May-21 07:00N 47°29' W 003°32'1 2.0
2018-May-21 06:30N 47°28' W 003°32'2 4.1
2018-May-21 06:01N 47°30' W 003°33'2 3.3
2018-May-21 05:30N 47°32' W 003°32'4 3.4
2018-May-21 04:15N 47°35' W 003°36'1 4.3
2018-May-21 04:00N 47°36' W 003°36'2 3.9
2018-May-21 03:30N 47°37' W 003°39'2 4.0
2018-May-21 03:01N 47°36' W 003°37'2 4.0
2018-May-21 02:31N 47°35' W 003°34'2 4.2
2018-May-21 02:01N 47°34' W 003°32'2 3.9
2018-May-21 01:31N 47°32' W 003°32'2 4.3
2018-May-21 01:00N 47°30' W 003°32'2 3.3
2018-May-21 00:31N 47°29' W 003°30'2 4.3
2018-May-21 00:00N 47°31' W 003°30'2 4.2
2018-May-20 23:31N 47°33' W 003°31'2 3.9
2018-May-20 23:00N 47°35' W 003°33'2 4.2
2018-May-20 22:31N 47°36' W 003°35'2 3.8
2018-May-20 22:00N 47°37' W 003°38'2 3.5
2018-May-20 21:30N 47°36' W 003°40'1 1.4
2018-May-20 21:01N 47°35' W 003°40'2 3.4
2018-May-20 20:30N 47°37' W 003°39'7 3.9
2018-May-20 18:46N 47°32' W 003°31'1 4.0
2018-May-20 18:30N 47°32' W 003°32'2 3.5
2018-May-20 18:00N 47°30' W 003°30'2 3.6
2018-May-20 17:30N 47°29' W 003°32'2 3.7
2018-May-20 17:00N 47°28' W 003°34'2 3.8
2018-May-20 16:30N 47°30' W 003°36'2 3.0
2018-May-20 16:00N 47°30' W 003°33'2 3.0
2018-May-20 15:30N 47°29' W 003°35'2 3.2
2018-May-20 15:00N 47°30' W 003°35'2 3.5
2018-May-20 14:30N 47°29' W 003°33'1 2.5
2018-May-20 14:00N 47°28' W 003°33'1 1.6
2018-May-20 13:30N 47°27' W 003°32'2 4.4
2018-May-20 13:00N 47°30' W 003°32'1 2.8
2018-May-20 12:30N 47°31' W 003°34'2 4.2
2018-May-20 12:00N 47°29' W 003°31'2 3.3
2018-May-20 11:30N 47°28' W 003°32'2 4.0
2018-May-20 11:00N 47°30' W 003°32'1 2.3
2018-May-20 10:30N 47°31' W 003°34'2 4.0
2018-May-20 10:00N 47°29' W 003°32'1 2.6
2018-May-20 09:30N 47°28' W 003°32'2 4.0
2018-May-20 09:00N 47°30' W 003°32'1 2.2
2018-May-20 08:30N 47°31' W 003°33'2 4.0
2018-May-20 08:00N 47°29' W 003°32'0 1.0
2018-May-20 07:30N 47°28' W 003°32'2 4.1
2018-May-20 07:00N 47°30' W 003°33'0 0.2
2018-May-20 06:30N 47°30' W 003°33'2 4.2
2018-May-20 06:00N 47°28' W 003°32'8 3.0
2018-May-20 03:26N 47°36' W 003°35'1 2.6
2018-May-20 03:00N 47°35' W 003°34'2 4.3
2018-May-20 02:30N 47°34' W 003°31'2 4.1
2018-May-20 02:00N 47°32' W 003°30'2 4.3
2018-May-20 01:30N 47°30' W 003°30'2 4.3
2018-May-20 00:59N 47°28' W 003°29'2 4.2
2018-May-20 00:29N 47°26' W 003°29'2 2.5
2018-May-19 23:53N 47°25' W 003°27'2 4.3
2018-May-19 23:30N 47°26' W 003°28'2 4.2
2018-May-19 23:00N 47°28' W 003°29'2 4.2
2018-May-19 22:30N 47°30' W 003°30'2 4.3
2018-May-19 22:00N 47°32' W 003°31'2 4.0
2018-May-19 21:30N 47°34' W 003°33'2 4.4
2018-May-19 21:00N 47°35' W 003°35'4 1.9
2018-May-19 19:02N 47°33' W 003°31'0 4.3
2018-May-19 19:01N 47°33' W 003°31'2 3.9
2018-May-19 18:31N 47°31' W 003°33'2 3.4
2018-May-19 18:01N 47°32' W 003°35'2 4.0
2018-May-19 17:30N 47°31' W 003°34'2 3.4
2018-May-19 17:00N 47°29' W 003°34'1 2.5
2018-May-19 16:31N 47°29' W 003°36'2 3.2
2018-May-19 16:01N 47°30' W 003°36'2 3.7
2018-May-19 15:31N 47°30' W 003°33'2 4.1
2018-May-19 15:01N 47°29' W 003°36'2 3.6
2018-May-19 14:31N 47°30' W 003°35'1 2.9
2018-May-19 14:01N 47°31' W 003°33'2 3.1
2018-May-19 13:31N 47°29' W 003°33'2 4.1
2018-May-19 13:01N 47°29' W 003°36'2 3.9
2018-May-19 12:30N 47°31' W 003°37'2 4.1
2018-May-19 12:00N 47°30' W 003°34'2 3.2
2018-May-19 11:30N 47°29' W 003°34'2 4.1
2018-May-19 11:01N 47°30' W 003°37'2 3.4
2018-May-19 10:30N 47°31' W 003°35'2 3.3
2018-May-19 10:00N 47°29' W 003°36'2 3.5
2018-May-19 09:30N 47°30' W 003°33'2 3.8
2018-May-19 09:00N 47°31' W 003°34'1 2.5
2018-May-19 08:30N 47°32' W 003°35'2 4.2
2018-May-19 08:01N 47°30' W 003°36'2 4.2
2018-May-19 07:30N 47°28' W 003°39'1 2.4
2018-May-19 07:01N 47°28' W 003°37'2 4.3
2018-May-19 06:30N 47°29' W 003°34'2 3.4
2018-May-19 06:00N 47°31' W 003°34'2 3.9
2018-May-19 05:31N 47°32' W 003°36'3 1.7
2018-May-19 03:32N 47°35' W 003°35'0 5.5
2018-May-19 03:30N 47°35' W 003°36'3 6.2
2018-May-19 03:00N 47°38' W 003°33'4 7.4
2018-May-19 02:30N 47°40' W 003°29'4 8.0
2018-May-19 02:00N 47°42' W 003°23'2 1.1
2018-May-18 23:51N 47°44' W 003°22'0 0.2
2018-May-18 23:30N 47°44' W 003°22'0 0.0
2018-May-18 22:59N 47°44' W 003°22'2 4.0
2018-May-18 22:30N 47°42' W 003°22'4 8.5
2018-May-18 22:00N 47°38' W 003°23'4 7.8
2018-May-18 21:30N 47°34' W 003°26'5 7.4
2018-May-18 20:46N 47°31' W 003°32'1 3.0
2018-May-18 20:30N 47°31' W 003°34'1 2.4
2018-May-18 19:54N 47°32' W 003°35'2 4.1
2018-May-18 19:29N 47°31' W 003°33'2 3.8
2018-May-18 19:00N 47°29' W 003°35'2 3.8
2018-May-18 18:30N 47°29' W 003°38'2 4.2
2018-May-18 18:00N 47°31' W 003°37'1 1.5
2018-May-18 17:30N 47°32' W 003°37'2 4.3
2018-May-18 17:00N 47°32' W 003°40'2 4.2
2018-May-18 16:30N 47°31' W 003°42'2 4.0
2018-May-18 16:00N 47°29' W 003°42'2 4.0
2018-May-18 15:30N 47°27' W 003°41'2 4.2
2018-May-18 15:00N 47°25' W 003°40'1 2.1
2018-May-18 14:30N 47°24' W 003°40'2 3.9
2018-May-18 14:00N 47°26' W 003°40'2 3.3
2018-May-18 13:30N 47°26' W 003°37'2 3.9
2018-May-18 13:00N 47°24' W 003°36'2 3.8
2018-May-18 12:30N 47°23' W 003°35'2 4.4
2018-May-18 12:00N 47°21' W 003°33'5 3.1
2018-May-18 10:27N 47°16' W 003°31'3 0.5
2018-May-18 03:57N 47°20' W 003°33'2 5.5
2018-May-18 03:30N 47°22' W 003°32'4 8.2
2018-May-18 03:00N 47°25' W 003°29'4 8.0
2018-May-18 02:30N 47°29' W 003°27'4 8.0
2018-May-18 02:00N 47°33' W 003°24'4 8.0
2018-May-18 01:31N 47°36' W 003°22'4 8.2
2018-May-18 01:00N 47°41' W 003°22'3 6.3
2018-May-18 00:30N 47°44' W 003°22'0 0.0
2018-May-18 00:01N 47°44' W 003°22'3 5.8
2018-May-17 23:31N 47°41' W 003°22'5 9.0
2018-May-17 23:01N 47°36' W 003°22'4 8.3
2018-May-17 22:30N 47°32' W 003°24'4 8.3
2018-May-17 22:01N 47°29' W 003°27'4 8.2
2018-May-17 21:30N 47°25' W 003°29'4 8.3
2018-May-17 21:00N 47°21' W 003°33'11 0.3
2018-May-16 10:44N 47°11' W 003°32'8 1.4
2018-May-16 04:45N 47°19' W 003°34'2 4.5
2018-May-16 04:16N 47°21' W 003°33'2 8.6
2018-May-16 04:00N 47°23' W 003°32'4 8.4
2018-May-16 03:30N 47°27' W 003°29'4 8.4
2018-May-16 03:00N 47°31' W 003°26'4 8.6
2018-May-16 02:30N 47°35' W 003°23'4 8.7
2018-May-16 02:00N 47°39' W 003°23'4 8.2
2018-May-16 01:30N 47°43' W 003°22'1 1.7
2018-May-16 01:01N 47°44' W 003°22'0 0.0
2018-May-16 00:30N 47°44' W 003°22'0 0.0
2018-May-16 00:00N 47°44' W 003°22'3 5.6
2018-May-15 23:30N 47°41' W 003°22'4 8.8
2018-May-15 23:00N 47°37' W 003°22'4 8.3
2018-May-15 22:31N 47°33' W 003°24'4 8.4
2018-May-15 22:01N 47°29' W 003°27'4 8.2
2018-May-15 21:30N 47°25' W 003°29'4 8.0
2018-May-15 20:59N 47°21' W 003°31'5 2.1
2018-May-15 18:46N 47°16' W 003°33'1 3.6
2018-May-15 18:30N 47°16' W 003°33'3 3.8
2018-May-15 17:44N 47°14' W 003°36'5 4.0
2018-May-15 16:34N 47°13' W 003°43'1 5.2
2018-May-15 16:24N 47°13' W 003°44'2 3.1
2018-May-15 15:50N 47°14' W 003°47'1 4.0
2018-May-15 15:29N 47°15' W 003°48'2 4.1
2018-May-15 15:00N 47°17' W 003°48'1 2.8
2018-May-15 14:28N 47°16' W 003°46'3 2.0
2018-May-15 13:02N 47°14' W 003°48'0 4.2
2018-May-15 12:58N 47°14' W 003°48'3 2.6
2018-May-15 11:59N 47°13' W 003°45'1 0.5
2018-May-15 10:38N 47°14' W 003°46'5 1.5
2018-May-15 07:03N 47°13' W 003°38'0 4.4
2018-May-15 07:00N 47°13' W 003°37'3 4.5
2018-May-15 06:19N 47°15' W 003°33'3 3.6
2018-May-15 05:24N 47°18' W 003°35'2 4.4
2018-May-15 05:00N 47°19' W 003°34'1 2.5
2018-May-15 04:30N 47°20' W 003°35'1 1.9
2018-May-15 03:59N 47°20' W 003°34'3 5.4
2018-May-15 03:30N 47°22' W 003°33'4 7.6
2018-May-15 03:00N 47°26' W 003°30'4 7.6
2018-May-15 02:30N 47°29' W 003°27'4 7.7
2018-May-15 01:59N 47°32' W 003°25'4 7.7
2018-May-15 01:31N 47°36' W 003°22'4 8.2
2018-May-15 01:01N 47°40' W 003°22'3 6.5
2018-May-15 00:31N 47°43' W 003°22'  
2018-May-12 01:42N 47°44' W 003°22'0 0.0
2018-May-12 01:30N 47°44' W 003°22'0 0.0
2018-May-12 01:00N 47°44' W 003°22'0 0.0
2018-May-12 00:30N 47°44' W 003°22'0 0.0
2018-May-12 00:00N 47°44' W 003°22'2 4.2
2018-May-11 23:30N 47°42' W 003°22'4 8.7
2018-May-11 23:01N 47°37' W 003°22'4 8.4
2018-May-11 22:31N 47°33' W 003°24'4 8.8
2018-May-11 22:00N 47°29' W 003°28'4 9.0
2018-May-11 21:30N 47°26' W 003°31'5 8.2
2018-May-11 20:52N 47°21' W 003°33'4 1.6
2018-May-11 18:13N 47°16' W 003°31'  
Track history (hours):
 
Tides and Currents Weather Stations Pressure Air Temp Water Temp Dewpoint Dewpoint Depression Visibility Wind Speed Wind Dir Waves Ship Positions

F/V Le Belier

Last reported at 2018-May-21 09:00 UTC. Time now 2018-May-21 09:16 UTC.
Position N 47°30' W 003°31'.

Length 16 m.

Type: Fishing. MMSI: 227145200.

Date/timePositionNaut miles runAvg speedWind from/ knotsBaromVisibWave heightAir tempDewpointWater temp
2018-May-21 09:00N 47°30' W 003°31'2 3.4
2018-May-21 08:30N 47°28' W 003°32'2 4.3
2018-May-21 08:01N 47°30' W 003°33'0 1.0
2018-May-21 07:30N 47°31' W 003°33'2 4.2
2018-May-21 07:00N 47°29' W 003°32'1 2.0
2018-May-21 06:30N 47°28' W 003°32'2 4.1
2018-May-21 06:01N 47°30' W 003°33'2 3.3
2018-May-21 05:30N 47°32' W 003°32'4 3.4
2018-May-21 04:15N 47°35' W 003°36'1 4.3
2018-May-21 04:00N 47°36' W 003°36'2 3.9
2018-May-21 03:30N 47°37' W 003°39'2 4.0
2018-May-21 03:01N 47°36' W 003°37'2 4.0
2018-May-21 02:31N 47°35' W 003°34'2 4.2
2018-May-21 02:01N 47°34' W 003°32'2 3.9
2018-May-21 01:31N 47°32' W 003°32'2 4.3
2018-May-21 01:00N 47°30' W 003°32'2 3.3
2018-May-21 00:31N 47°29' W 003°30'2 4.3
2018-May-21 00:00N 47°31' W 003°30'2 4.2
2018-May-20 23:31N 47°33' W 003°31'2 3.9
2018-May-20 23:00N 47°35' W 003°33'2 4.2
2018-May-20 22:31N 47°36' W 003°35'2 3.8
2018-May-20 22:00N 47°37' W 003°38'2 3.5
2018-May-20 21:30N 47°36' W 003°40'1 1.4
2018-May-20 21:01N 47°35' W 003°40'2 3.4
2018-May-20 20:30N 47°37' W 003°39'7 3.9
2018-May-20 18:46N 47°32' W 003°31'1 4.0
2018-May-20 18:30N 47°32' W 003°32'2 3.5
2018-May-20 18:00N 47°30' W 003°30'2 3.6
2018-May-20 17:30N 47°29' W 003°32'2 3.7
2018-May-20 17:00N 47°28' W 003°34'2 3.8
2018-May-20 16:30N 47°30' W 003°36'2 3.0
2018-May-20 16:00N 47°30' W 003°33'2 3.0
2018-May-20 15:30N 47°29' W 003°35'2 3.2
2018-May-20 15:00N 47°30' W 003°35'2 3.5
2018-May-20 14:30N 47°29' W 003°33'1 2.5
2018-May-20 14:00N 47°28' W 003°33'1 1.6
2018-May-20 13:30N 47°27' W 003°32'2 4.4
2018-May-20 13:00N 47°30' W 003°32'1 2.8
2018-May-20 12:30N 47°31' W 003°34'2 4.2
2018-May-20 12:00N 47°29' W 003°31'2 3.3
2018-May-20 11:30N 47°28' W 003°32'2 4.0
2018-May-20 11:00N 47°30' W 003°32'1 2.3
2018-May-20 10:30N 47°31' W 003°34'2 4.0
2018-May-20 10:00N 47°29' W 003°32'1 2.6
2018-May-20 09:30N 47°28' W 003°32'2 4.0
2018-May-20 09:00N 47°30' W 003°32'1 2.2
2018-May-20 08:30N 47°31' W 003°33'2 4.0
2018-May-20 08:00N 47°29' W 003°32'0 1.0
2018-May-20 07:30N 47°28' W 003°32'2 4.1
2018-May-20 07:00N 47°30' W 003°33'0 0.2
2018-May-20 06:30N 47°30' W 003°33'2 4.2
2018-May-20 06:00N 47°28' W 003°32'8 3.0
2018-May-20 03:26N 47°36' W 003°35'1 2.6
2018-May-20 03:00N 47°35' W 003°34'2 4.3
2018-May-20 02:30N 47°34' W 003°31'2 4.1
2018-May-20 02:00N 47°32' W 003°30'2 4.3
2018-May-20 01:30N 47°30' W 003°30'2 4.3
2018-May-20 00:59N 47°28' W 003°29'2 4.2
2018-May-20 00:29N 47°26' W 003°29'2 2.5
2018-May-19 23:53N 47°25' W 003°27'2 4.3
2018-May-19 23:30N 47°26' W 003°28'2 4.2
2018-May-19 23:00N 47°28' W 003°29'2 4.2
2018-May-19 22:30N 47°30' W 003°30'2 4.3
2018-May-19 22:00N 47°32' W 003°31'2 4.0
2018-May-19 21:30N 47°34' W 003°33'2 4.4
2018-May-19 21:00N 47°35' W 003°35'4 1.9
2018-May-19 19:02N 47°33' W 003°31'0 4.3
2018-May-19 19:01N 47°33' W 003°31'2 3.9
2018-May-19 18:31N 47°31' W 003°33'2 3.4
2018-May-19 18:01N 47°32' W 003°35'2 4.0
2018-May-19 17:30N 47°31' W 003°34'2 3.4
2018-May-19 17:00N 47°29' W 003°34'1 2.5
2018-May-19 16:31N 47°29' W 003°36'2 3.2
2018-May-19 16:01N 47°30' W 003°36'2 3.7
2018-May-19 15:31N 47°30' W 003°33'2 4.1
2018-May-19 15:01N 47°29' W 003°36'2 3.6
2018-May-19 14:31N 47°30' W 003°35'1 2.9
2018-May-19 14:01N 47°31' W 003°33'2 3.1
2018-May-19 13:31N 47°29' W 003°33'2 4.1
2018-May-19 13:01N 47°29' W 003°36'2 3.9
2018-May-19 12:30N 47°31' W 003°37'2 4.1
2018-May-19 12:00N 47°30' W 003°34'2 3.2
2018-May-19 11:30N 47°29' W 003°34'2 4.1
2018-May-19 11:01N 47°30' W 003°37'2 3.4
2018-May-19 10:30N 47°31' W 003°35'2 3.3
2018-May-19 10:00N 47°29' W 003°36'2 3.5
2018-May-19 09:30N 47°30' W 003°33'2 3.8
2018-May-19 09:00N 47°31' W 003°34'1 2.5
2018-May-19 08:30N 47°32' W 003°35'2 4.2
2018-May-19 08:01N 47°30' W 003°36'2 4.2
2018-May-19 07:30N 47°28' W 003°39'1 2.4
2018-May-19 07:01N 47°28' W 003°37'2 4.3
2018-May-19 06:30N 47°29' W 003°34'2 3.4
2018-May-19 06:00N 47°31' W 003°34'2 3.9
2018-May-19 05:31N 47°32' W 003°36'3 1.7
2018-May-19 03:32N 47°35' W 003°35'0 5.5
2018-May-19 03:30N 47°35' W 003°36'3 6.2
2018-May-19 03:00N 47°38' W 003°33'4 7.4
2018-May-19 02:30N 47°40' W 003°29'4 8.0
2018-May-19 02:00N 47°42' W 003°23'2 1.1
2018-May-18 23:51N 47°44' W 003°22'0 0.2
2018-May-18 23:30N 47°44' W 003°22'0 0.0
2018-May-18 22:59N 47°44' W 003°22'2 4.0
2018-May-18 22:30N 47°42' W 003°22'4 8.5
2018-May-18 22:00N 47°38' W 003°23'4 7.8
2018-May-18 21:30N 47°34' W 003°26'5 7.4
2018-May-18 20:46N 47°31' W 003°32'1 3.0
2018-May-18 20:30N 47°31' W 003°34'1 2.4
2018-May-18 19:54N 47°32' W 003°35'2 4.1
2018-May-18 19:29N 47°31' W 003°33'2 3.8
2018-May-18 19:00N 47°29' W 003°35'2 3.8
2018-May-18 18:30N 47°29' W 003°38'2 4.2
2018-May-18 18:00N 47°31' W 003°37'1 1.5
2018-May-18 17:30N 47°32' W 003°37'2 4.3
2018-May-18 17:00N 47°32' W 003°40'2 4.2
2018-May-18 16:30N 47°31' W 003°42'2 4.0
2018-May-18 16:00N 47°29' W 003°42'2 4.0
2018-May-18 15:30N 47°27' W 003°41'2 4.2
2018-May-18 15:00N 47°25' W 003°40'1 2.1
2018-May-18 14:30N 47°24' W 003°40'2 3.9
2018-May-18 14:00N 47°26' W 003°40'2 3.3
2018-May-18 13:30N 47°26' W 003°37'2 3.9
2018-May-18 13:00N 47°24' W 003°36'2 3.8
2018-May-18 12:30N 47°23' W 003°35'2 4.4
2018-May-18 12:00N 47°21' W 003°33'5 3.1
2018-May-18 10:27N 47°16' W 003°31'3 0.5
2018-May-18 03:57N 47°20' W 003°33'2 5.5
2018-May-18 03:30N 47°22' W 003°32'4 8.2
2018-May-18 03:00N 47°25' W 003°29'4 8.0
2018-May-18 02:30N 47°29' W 003°27'4 8.0
2018-May-18 02:00N 47°33' W 003°24'4 8.0
2018-May-18 01:31N 47°36' W 003°22'4 8.2
2018-May-18 01:00N 47°41' W 003°22'3 6.3
2018-May-18 00:30N 47°44' W 003°22'0 0.0
2018-May-18 00:01N 47°44' W 003°22'3 5.8
2018-May-17 23:31N 47°41' W 003°22'5 9.0
2018-May-17 23:01N 47°36' W 003°22'4 8.3
2018-May-17 22:30N 47°32' W 003°24'4 8.3
2018-May-17 22:01N 47°29' W 003°27'4 8.2
2018-May-17 21:30N 47°25' W 003°29'4 8.3
2018-May-17 21:00N 47°21' W 003°33'11 0.3
2018-May-16 10:44N 47°11' W 003°32'8 1.4
2018-May-16 04:45N 47°19' W 003°34'2 4.5
2018-May-16 04:16N 47°21' W 003°33'2 8.6
2018-May-16 04:00N 47°23' W 003°32'4 8.4
2018-May-16 03:30N 47°27' W 003°29'4 8.4
2018-May-16 03:00N 47°31' W 003°26'4 8.6
2018-May-16 02:30N 47°35' W 003°23'4 8.7
2018-May-16 02:00N 47°39' W 003°23'4 8.2
2018-May-16 01:30N 47°43' W 003°22'1 1.7
2018-May-16 01:01N 47°44' W 003°22'0 0.0
2018-May-16 00:30N 47°44' W 003°22'0 0.0
2018-May-16 00:00N 47°44' W 003°22'3 5.6
2018-May-15 23:30N 47°41' W 003°22'4 8.8
2018-May-15 23:00N 47°37' W 003°22'4 8.3
2018-May-15 22:31N 47°33' W 003°24'4 8.4
2018-May-15 22:01N 47°29' W 003°27'4 8.2
2018-May-15 21:30N 47°25' W 003°29'4 8.0
2018-May-15 20:59N 47°21' W 003°31'5 2.1
2018-May-15 18:46N 47°16' W 003°33'1 3.6
2018-May-15 18:30N 47°16' W 003°33'3 3.8
2018-May-15 17:44N 47°14' W 003°36'5 4.0
2018-May-15 16:34N 47°13' W 003°43'1 5.2
2018-May-15 16:24N 47°13' W 003°44'2 3.1
2018-May-15 15:50N 47°14' W 003°47'1 4.0
2018-May-15 15:29N 47°15' W 003°48'2 4.1
2018-May-15 15:00N 47°17' W 003°48'1 2.8
2018-May-15 14:28N 47°16' W 003°46'3 2.0
2018-May-15 13:02N 47°14' W 003°48'0 4.2
2018-May-15 12:58N 47°14' W 003°48'3 2.6
2018-May-15 11:59N 47°13' W 003°45'1 0.5
2018-May-15 10:38N 47°14' W 003°46'5 1.5
2018-May-15 07:03N 47°13' W 003°38'0 4.4
2018-May-15 07:00N 47°13' W 003°37'3 4.5
2018-May-15 06:19N 47°15' W 003°33'3 3.6
2018-May-15 05:24N 47°18' W 003°35'2 4.4
2018-May-15 05:00N 47°19' W 003°34'1 2.5
2018-May-15 04:30N 47°20' W 003°35'1 1.9
2018-May-15 03:59N 47°20' W 003°34'3 5.4
2018-May-15 03:30N 47°22' W 003°33'4 7.6
2018-May-15 03:00N 47°26' W 003°30'4 7.6
2018-May-15 02:30N 47°29' W 003°27'4 7.7
2018-May-15 01:59N 47°32' W 003°25'4 7.7
2018-May-15 01:31N 47°36' W 003°22'4 8.2
2018-May-15 01:01N 47°40' W 003°22'3 6.5
2018-May-15 00:31N 47°43' W 003°22'  
2018-May-12 01:42N 47°44' W 003°22'0 0.0
2018-May-12 01:30N 47°44' W 003°22'0 0.0
2018-May-12 01:00N 47°44' W 003°22'0 0.0
2018-May-12 00:30N 47°44' W 003°22'0 0.0
2018-May-12 00:00N 47°44' W 003°22'2 4.2
2018-May-11 23:30N 47°42' W 003°22'4 8.7
2018-May-11 23:01N 47°37' W 003°22'4 8.4
2018-May-11 22:31N 47°33' W 003°24'4 8.8
2018-May-11 22:00N 47°29' W 003°28'4 9.0
2018-May-11 21:30N 47°26' W 003°31'5 8.2
2018-May-11 20:52N 47°21' W 003°33'4 1.6
2018-May-11 18:13N 47°16' W 003°31'  

Dump ship's entire track history